Time;durP1;ratioP1;P1;durP2;ratioP2;P2;SDS_P1;SDS_P2;PMS_P1;PMS_P2;Temp;Humidity;BMP_temperature;BMP_pressure;BME280_temperature;BME280_humidity;BME280_pressure;Samples;Min_cycle;Max_cycle;Signal;HPM_P1;HPM_P2
2022/09/18 00:04:59;;;;;;;;;;;;;;;;;;20748790;28;19933;-64
2022/09/18 00:15:00;;;;;;;;;;;;;;;;;;20748439;28;19926;-63
2022/09/18 00:25:03;;;;;;;;;;;;;;;;;;20762406;28;19979;-63
2022/09/18 00:35:06;;;;;;;;;;;;;;;;;;20761122;28;19930;-61
2022/09/18 00:45:09;;;;;;;;;;;;;;;;;;20761699;28;20293;-63
2022/09/18 00:55:11;;;;;;;;;;;;;;;;;;20762869;28;19926;-62
2022/09/18 01:05:13;;;;;;;;;;;;;;;;;;20742081;28;20398;-63
2022/09/18 01:15:16;;;;;;;;;;;;;;;;;;20758673;28;19936;-62
2022/09/18 01:25:20;;;;;;;;;;;;;;;;;;20758884;28;19926;-62
2022/09/18 01:35:25;;;;;;;;;;;;;;;;;;20755984;28;19940;-64
2022/09/18 01:45:31;;;;;;;;;;;;;;;;;;20756895;28;19965;-60
2022/09/18 01:55:33;;;;;;;;;;;;;;;;;;20755259;28;19941;-63
2022/09/18 02:05:35;;;;;;;;;;;;;;;;;;20754388;28;20017;-61
2022/09/18 02:15:36;;;;;;;;;;;;;;;;;;20754686;28;19972;-61
2022/09/18 02:25:40;;;;;;;;;;;;;;;;;;20753280;28;20472;-63
2022/09/18 02:35:45;;;;;;;;;;;;;;;;;;20736434;28;19979;-62
2022/09/18 02:45:48;;;;;;;;;;;;;;;;;;20750854;28;20018;-62
2022/09/18 02:55:51;;;;;;;;;;;;;;;;;;20751897;28;19926;-62
2022/09/18 03:05:53;;;;;;;;;;;;;;;;;;20751332;28;19925;-62
2022/09/18 03:15:54;;;;;;;;;;;;;;;;;;20751406;28;19929;-61
2022/09/18 03:25:57;;;;;;;;;;;;;;;;;;20749925;28;20022;-62
2022/09/18 03:36:18;;;;;;;;;;;;;;;;;;20749002;28;19925;-62
2022/09/18 03:46:24;;;;;;;;;;;;;;;;;;20749406;28;19933;-62
2022/09/18 03:56:30;;;;;;;;;;;;;;;;;;20762218;28;19925;-62
2022/09/18 04:06:32;;;;;;;;;;;;;;;;;;20765267;28;20428;-60
2022/09/18 04:16:34;;;;;;;;;;;;;;;;;;20763966;28;20034;-60
2022/09/18 04:26:37;;;;;;;;;;;;;;;;;;20764271;28;20396;-62
2022/09/18 04:36:42;;;;;;;;;;;;;;;;;;20765005;28;19925;-62
2022/09/18 04:46:44;;;;;;;;;;;;;;;;;;20744197;28;19972;-61
2022/09/18 04:57:04;;;;;;;;;;;;;;;;;;20759840;28;20027;-62
2022/09/18 05:07:06;;;;;;;;;;;;;;;;;;20759241;28;19929;-62
2022/09/18 05:17:08;;;;;;;;;;;;;;;;;;20759613;28;19944;-62
2022/09/18 05:27:10;;;;;;;;;;;;;;;;;;20740057;28;19925;-62
2022/09/18 05:37:12;;;;;;;;;;;;;;;;;;20756669;28;19968;-63
2022/09/18 05:47:14;;;;;;;;;;;;;;;;;;20738203;28;19925;-62
2022/09/18 05:57:16;;;;;;;;;;;;;;;;;;20755917;28;19968;-61
2022/09/18 06:07:18;;;;;;;;;;;;;;;;;;20754516;28;20389;-62
2022/09/18 06:17:20;;;;;;;;;;;;;;;;;;20735179;28;19930;-62
2022/09/18 06:27:22;;;;;;;;;;;;;;;;;;20736503;28;19980;-63
2022/09/18 06:37:24;;;;;;;;;;;;;;;;;;20752500;28;19925;-62
2022/09/18 06:47:26;;;;;;;;;;;;;;;;;;20752573;28;20297;-62
2022/09/18 06:57:28;;;;;;;;;;;;;;;;;;20750654;28;20289;-60
2022/09/18 07:07:30;;;;;;;;;;;;;;;;;;20751206;28;19925;-62
2022/09/18 07:17:32;;;;;;;;;;;;;;;;;;20749319;28;19980;-63
2022/09/18 07:27:35;;;;;;;;;;;;;;;;;;20750470;28;19932;-61
2022/09/18 07:37:36;;;;;;;;;;;;;;;;;;20750148;28;20410;-61
2022/09/18 07:47:38;;;;;;;;;;;;;;;;;;20749202;28;19932;-61
2022/09/18 07:57:40;;;;;;;;;;;;;;;;;;20730236;28;19926;-63
2022/09/18 08:07:42;;;;;;;;;;;;;;;;;;20746325;28;19930;-60
2022/09/18 08:17:44;;;;;;;;;;;;;;;;;;20746731;28;20329;-63
2022/09/18 08:27:46;;;;;;;;;;;;;;;;;;20746526;28;19926;-62
2022/09/18 08:37:48;;;;;;;;;;;;;;;;;;20748308;28;20007;-61
2022/09/18 08:47:50;;;;;;;;;;;;;;;;;;20758701;28;19925;-60
2022/09/18 08:57:51;;;;;;;;;;;;;;;;;;20759497;28;20313;-62
2022/09/18 09:07:53;;;;;;;;;;;;;;;;;;20741965;28;19976;-61
2022/09/18 09:17:55;;;;;;;;;;;;;;;;;;20759222;28;20413;-61
2022/09/18 09:27:57;;;;;;;;;;;;;;;;;;20760431;28;19979;-60
2022/09/18 09:37:59;;;;;;;;;;;;;;;;;;20757414;28;20067;-60
2022/09/18 09:48:02;;;;;;;;;;;;;;;;;;20756076;28;19932;-61
2022/09/18 09:58:03;;;;;;;;;;;;;;;;;;20756947;28;19965;-63
2022/09/18 10:08:05;;;;;;;;;;;;;;;;;;20737796;28;19925;-63
2022/09/18 10:18:07;;;;;;;;;;;;;;;;;;20754960;28;20297;-67
2022/09/18 10:28:08;;;;;;;;;;;;;;;;;;20736458;28;20224;-69
2022/09/18 10:38:11;;;;;;;;;;;;;;;;;;20754699;28;19980;-63
2022/09/18 10:48:12;;;;;;;;;;;;;;;;;;20751875;28;20375;-62
2022/09/18 10:58:14;;;;;;;;;;;;;;;;;;20733243;28;19930;-63
2022/09/18 11:08:16;;;;;;;;;;;;;;;;;;20750582;28;19929;-63
2022/09/18 11:18:18;;;;;;;;;;;;;;;;;;20751093;28;19925;-63
2022/09/18 11:28:20;;;;;;;;;;;;;;;;;;20749978;28;20019;-64
2022/09/18 11:38:22;;;;;;;;;;;;;;;;;;20748773;28;19933;-61
2022/09/18 11:48:24;;;;;;;;;;;;;;;;;;20749283;28;19933;-61
2022/09/18 11:58:25;;;;;;;;;;;;;;;;;;20749128;28;19932;-64
2022/09/18 12:08:27;;;;;;;;;;;;;;;;;;20737992;28;19930;-58
2022/09/18 12:18:29;;;;;;;;;;;;;;;;;;20753504;28;19932;-60
2022/09/18 12:28:32;;;;;;;;;;;;;;;;;;20748767;28;19925;-61
2022/09/18 12:38:33;;;;;;;;;;;;;;;;;;20756401;28;19934;-62
2022/09/18 12:48:35;;;;;;;;;;;;;;;;;;20756029;28;19929;-61
2022/09/18 12:58:37;;;;;;;;;;;;;;;;;;20747359;28;20431;-62
2022/09/18 13:08:39;;;;;;;;;;;;;;;;;;20717699;28;19925;-58
2022/09/18 13:18:41;;;;;;;;;;;;;;;;;;20760868;28;19932;-60
2022/09/18 13:28:42;;;;;;;;;;;;;;;;;;20757828;28;19925;-57
2022/09/18 13:38:44;;;;;;;;;;;;;;;;;;20756011;28;19925;-57
2022/09/18 13:48:45;;;;;;;;;;;;;;;;;;20756240;28;19988;-58
2022/09/18 13:58:48;;;;;;;;;;;;;;;;;;20755300;28;19930;-59
2022/09/18 14:08:50;;;;;;;;;;;;;;;;;;20754808;28;19925;-59
2022/09/18 14:18:52;;;;;;;;;;;;;;;;;;20754823;28;20024;-61
2022/09/18 14:28:54;;;;;;;;;;;;;;;;;;20753237;28;19933;-62
2022/09/18 14:38:56;;;;;;;;;;;;;;;;;;20753088;28;20288;-57
2022/09/18 14:48:59;;;;;;;;;;;;;;;;;;20752021;28;19987;-56
2022/09/18 14:59:01;;;;;;;;;;;;;;;;;;20751440;28;19926;-57
2022/09/18 15:09:03;;;;;;;;;;;;;;;;;;20732278;28;19926;-62
2022/09/18 15:19:04;;;;;;;;;;;;;;;;;;20732559;28;20104;-61
2022/09/18 15:29:07;;;;;;;;;;;;;;;;;;20731234;28;19988;-58
2022/09/18 15:39:08;;;;;;;;;;;;;;;;;;20748327;28;19926;-58
2022/09/18 15:49:10;;;;;;;;;;;;;;;;;;20756287;28;20015;-58
2022/09/18 15:59:12;;;;;;;;;;;;;;;;;;20765124;28;20028;-57
2022/09/18 16:09:14;;;;;;;;;;;;;;;;;;20763853;28;19925;-59
2022/09/18 16:19:17;;;;;;;;;;;;;;;;;;20764179;28;19940;-62
2022/09/18 16:29:19;;;;;;;;;;;;;;;;;;20764277;28;19932;-58
2022/09/18 16:39:20;;;;;;;;;;;;;;;;;;20761931;28;19926;-59
2022/09/18 16:49:22;;;;;;;;;;;;;;;;;;20761242;28;19925;-58
2022/09/18 16:59:24;;;;;;;;;;;;;;;;;;20761387;28;19925;-59
2022/09/18 17:09:25;;;;;;;;;;;;;;;;;;20761296;28;20025;-61
2022/09/18 17:19:27;;;;;;;;;;;;;;;;;;20759668;28;19929;-57
2022/09/18 17:29:29;;;;;;;;;;;;;;;;;;20757706;28;19933;-57
2022/09/18 17:39:31;;;;;;;;;;;;;;;;;;20756690;28;19972;-58
2022/09/18 17:49:33;;;;;;;;;;;;;;;;;;20756881;28;20076;-58
2022/09/18 17:59:35;;;;;;;;;;;;;;;;;;20755848;28;20305;-58
2022/09/18 18:09:36;;;;;;;;;;;;;;;;;;20754421;28;19925;-57
2022/09/18 18:19:39;;;;;;;;;;;;;;;;;;20753291;28;19925;-57
2022/09/18 18:29:41;;;;;;;;;;;;;;;;;;20752407;28;19971;-59
2022/09/18 18:39:42;;;;;;;;;;;;;;;;;;20751582;28;20430;-57
2022/09/18 18:49:43;;;;;;;;;;;;;;;;;;20751690;28;20331;-57
2022/09/18 18:59:45;;;;;;;;;;;;;;;;;;20752017;28;19925;-59
2022/09/18 19:09:47;;;;;;;;;;;;;;;;;;20751759;28;20323;-57
2022/09/18 19:19:49;;;;;;;;;;;;;;;;;;20750725;28;19926;-57
2022/09/18 19:29:50;;;;;;;;;;;;;;;;;;20749586;28;20390;-59
2022/09/18 19:39:52;;;;;;;;;;;;;;;;;;20748864;28;19926;-63
2022/09/18 19:49:54;;;;;;;;;;;;;;;;;;20748144;28;20258;-58
2022/09/18 19:59:57;;;;;;;;;;;;;;;;;;20748031;28;19972;-59
2022/09/18 20:09:59;;;;;;;;;;;;;;;;;;20748350;28;20380;-58
2022/09/18 20:20:01;;;;;;;;;;;;;;;;;;20748285;28;19925;-61
2022/09/18 20:30:03;;;;;;;;;;;;;;;;;;20746684;28;20400;-58
2022/09/18 20:40:04;;;;;;;;;;;;;;;;;;20761411;28;19925;-60
2022/09/18 20:50:06;;;;;;;;;;;;;;;;;;20762723;28;20084;-57
2022/09/18 21:00:08;;;;;;;;;;;;;;;;;;20761183;28;19925;-59
2022/09/18 21:10:10;;;;;;;;;;;;;;;;;;20759885;28;19925;-61
2022/09/18 21:20:12;;;;;;;;;;;;;;;;;;20760824;28;19933;-59
2022/09/18 21:30:15;;;;;;;;;;;;;;;;;;20757534;28;19925;-62
2022/09/18 21:40:17;;;;;;;;;;;;;;;;;;20758074;28;19931;-62
2022/09/18 21:50:19;;;;;;;;;;;;;;;;;;20756480;28;20029;-59
2022/09/18 22:00:21;;;;;;;;;;;;;;;;;;20756552;28;19933;-59
2022/09/18 22:10:23;;;;;;;;;;;;;;;;;;20755098;28;19972;-59
2022/09/18 22:20:25;;;;;;;;;;;;;;;;;;20755251;28;19925;-59
2022/09/18 22:30:30;;;;;;;;;;;;;;;;;;20753914;28;19926;-58
2022/09/18 22:40:31;;;;;;;;;;;;;;;;;;20735219;28;19925;-59
2022/09/18 22:50:33;;;;;;;;;;;;;;;;;;20752188;28;20300;-57
2022/09/18 23:00:35;;;;;;;;;;;;;;;;;;20751204;28;19925;-60
2022/09/18 23:10:38;;;;;;;;;;;;;;;;;;20752574;28;20286;-60
2022/09/18 23:20:40;;;;;;;;;;;;;;;;;;20750078;28;19925;-58
2022/09/18 23:30:42;;;;;;;;;;;;;;;;;;20749670;28;20344;-60
2022/09/18 23:40:44;;;;;;;;;;;;;;;;;;20748985;28;19932;-57
2022/09/18 23:50:46;;;;;;;;;;;;;;;;;;20748633;28;19930;-60
